Etusivu
METAR-TAF:

METAR-TAF

Lentoasemat :

Maarianhamina, Suomi

Maarianhaminan lentoasema

Leveyspiiri: 60-07N, Pituuspiiri: 019-54E, korkeus merenpinnasta: 6 m

Tämänhetkinen sää

Tämä raportti tehtiin 11 minuuttia sitten, kello 04.50 UTC
Tuuli 3 kn pohjoisen/luoteesta
Lämpötila 9°C
Kosteus 81%
Ilmanpaine 1011 hPa
Näkyvyys 10 km tai enemmän
ei pilviä alle 1500 m:ssä eikä cumulonimbus-pilviä

METAR: EFMA 230450Z 33003KT CAVOK 09/06 Q1011

Aika: 08:01 (05:01 UTC)

Sääennuste

Tämä raportti tehtiin 2 tuntia ja 38 minuuttia sitten, kello 02.23 UTC
Ennuste voimassa 23. päivästä klo 03 UTC - 23. päivään klo 12 UTC
Tuuli 3 kn lännestä/luoteesta
Näkyvyys 10 km tai enemmän
ei pilviä alle 1500 m:ssä eikä cumulonimbus-pilviä
Todennäköisyys 30%
23. päivästä klo 04 UTC - 23. päivään klo 12 UTC
Muutamia pilviä 4000 ft:n korkeudessa, Cumulonimbus.

TAF: EFMA 230223Z 2303/2312 30003KT CAVOK PROB30 2304/2312 FEW040CB

Säähavainnot ja -ennusteet yli 4000 lentoasemalta (METAR- ja TAF-raportit).

Käytössä olevat sääasemat on merkitty karttaan keltaisilla ja punaisilla pisteillä.

Aseta hiiri pisteen päälle nähdäksesi sääaseman nimen.

Klikkaa sitten nähdäksesi säähavainnot ja -ennusteet.

Kartan vaihtaminen: klikkaa mustalla rastilla varustettuja vihreitä pisteitä, niin voit zoomata sisään; viivalla varustettua vihreää pistettä, niin voit zoomata ulos tai vihreitä nuolia, niin pääset viereisille kartoille.


METAR-TAF: